createdAt,value
2018-03-21T00:01:10.493Z,98.80
2018-03-21T00:03:40.227Z,103.00
2018-03-21T00:06:09.449Z,102.80
2018-03-21T00:08:38.372Z,96.80
2018-03-21T00:11:07.640Z,97.00
2018-03-21T00:13:36.690Z,101.40
2018-03-21T00:16:05.883Z,99.60
2018-03-21T00:18:35.242Z,98.80
2018-03-21T00:21:04.588Z,100.80
2018-03-21T00:23:33.950Z,99.40
2018-03-21T00:26:03.788Z,100.00
2018-03-21T00:28:32.803Z,100.00
2018-03-21T00:31:02.123Z,102.20
2018-03-21T00:33:31.611Z,93.20
2018-03-21T00:36:00.997Z,102.60
2018-03-21T00:38:30.474Z,108.40
2018-03-21T00:40:59.504Z,131.60
2018-03-21T00:43:28.621Z,144.80
2018-03-21T00:45:57.780Z,139.20
2018-03-21T00:48:27.000Z,121.40
2018-03-21T00:50:56.380Z,117.60
2018-03-21T00:53:26.293Z,119.00
2018-03-21T00:55:55.689Z,121.60
2018-03-21T00:58:25.929Z,130.40
2018-03-21T01:00:54.774Z,127.20
2018-03-21T01:03:24.092Z,126.20
2018-03-21T01:05:54.035Z,129.60
2018-03-21T01:08:23.018Z,120.00
2018-03-21T01:10:52.286Z,134.40
2018-03-21T01:13:21.594Z,128.40
2018-03-21T01:15:50.822Z,134.60
2018-03-21T01:18:20.378Z,138.00
2018-03-21T01:20:50.013Z,132.60
2018-03-21T01:23:19.760Z,131.60
2018-03-21T01:25:49.057Z,132.60
2018-03-21T01:28:18.536Z,130.20
2018-03-21T01:30:47.980Z,126.40
2018-03-21T01:33:16.972Z,129.40
2018-03-21T01:35:46.599Z,132.00
2018-03-21T01:38:15.821Z,137.20
2018-03-21T01:40:45.350Z,132.40
2018-03-21T01:43:14.699Z,139.00
2018-03-21T01:45:43.678Z,142.80
2018-03-21T01:48:13.011Z,145.00
2018-03-21T01:50:42.214Z,141.80
2018-03-21T01:53:12.575Z,139.20
2018-03-21T01:55:41.925Z,147.60
2018-03-21T01:58:11.212Z,152.40
2018-03-21T02:00:40.399Z,139.20
2018-03-21T02:03:09.812Z,144.00
2018-03-21T02:05:39.371Z,138.40
2018-03-21T02:08:08.299Z,140.20
2018-03-21T02:10:37.468Z,142.60
2018-03-21T02:13:06.865Z,150.20
2018-03-21T02:15:36.160Z,150.20
2018-03-21T02:18:05.540Z,149.40
2018-03-21T02:20:35.024Z,151.20
2018-03-21T02:23:04.556Z,143.20
2018-03-21T02:25:34.066Z,154.60
2018-03-21T02:28:03.186Z,148.20
2018-03-21T02:30:32.702Z,154.20
2018-03-21T02:33:02.131Z,155.00
2018-03-21T02:35:31.617Z,159.80
2018-03-21T02:38:00.911Z,159.40
2018-03-21T02:40:29.825Z,171.40
2018-03-21T02:42:58.939Z,176.75
2018-03-21T02:45:28.018Z,191.50
2018-03-21T02:47:57.158Z,205.50
2018-03-21T02:50:26.589Z,201.50
2018-03-21T02:52:56.059Z,202.00
2018-03-21T02:55:25.397Z,195.75
2018-03-21T02:57:54.957Z,206.25
2018-03-21T03:00:25.427Z,179.00
2018-03-21T03:02:54.791Z,184.75
2018-03-21T03:05:24.351Z,213.50
2018-03-21T03:07:53.577Z,198.25
2018-03-21T03:10:22.522Z,186.25
2018-03-21T03:12:52.123Z,199.50
2018-03-21T03:15:21.280Z,182.00
2018-03-21T03:17:50.883Z,166.00
2018-03-21T03:20:20.186Z,166.80
2018-03-21T03:22:49.618Z,148.80
2018-03-21T03:25:18.873Z,135.60
2018-03-21T03:27:48.385Z,145.80
2018-03-21T03:30:17.831Z,139.20
2018-03-21T03:32:47.491Z,135.00
2018-03-21T03:35:17.180Z,141.00
2018-03-21T03:37:46.372Z,141.00
2018-03-21T03:40:15.252Z,136.20
2018-03-21T03:42:44.521Z,119.60
2018-03-21T03:45:13.812Z,119.00
2018-03-21T03:47:42.949Z,116.80
2018-03-21T03:50:12.327Z,121.40
2018-03-21T03:52:41.658Z,125.40
2018-03-21T03:55:11.067Z,122.60
2018-03-21T03:57:40.454Z,122.20
2018-03-21T04:00:09.600Z,104.20
2018-03-21T04:02:40.045Z,97.60
2018-03-21T04:05:09.249Z,111.20
2018-03-21T04:07:38.745Z,113.40
2018-03-21T04:10:08.245Z,116.00
2018-03-21T04:12:37.455Z,120.80
2018-03-21T04:15:06.692Z,119.20
2018-03-21T04:17:36.158Z,125.00
2018-03-21T04:20:05.565Z,114.60
2018-03-21T04:22:34.876Z,108.00
2018-03-21T04:25:04.285Z,99.40
2018-03-21T04:28:58.032Z,93.20
2018-03-21T04:31:42.842Z,92.60
2018-03-21T04:34:12.371Z,90.60
2018-03-21T04:36:41.915Z,78.20
2018-03-21T04:39:11.351Z,81.00
2018-03-21T04:41:40.831Z,79.40
2018-03-21T04:44:10.360Z,76.80
2018-03-21T04:46:40.404Z,68.80
2018-03-21T04:49:10.868Z,72.40
2018-03-21T04:51:40.934Z,70.00
2018-03-21T04:54:11.358Z,77.20
2018-03-21T04:56:42.399Z,61.80
2018-03-21T04:59:14.072Z,59.60
2018-03-21T05:01:45.360Z,59.80
2018-03-21T05:04:18.205Z,62.00
2018-03-21T05:06:50.232Z,62.00
2018-03-21T05:09:22.215Z,59.20
2018-03-21T05:11:52.797Z,56.60
2018-03-21T05:14:24.038Z,59.60
2018-03-21T05:16:53.623Z,59.00
2018-03-21T05:19:25.161Z,53.20
2018-03-21T05:21:56.854Z,50.80
2018-03-21T05:24:29.088Z,54.60
2018-03-21T05:27:01.618Z,52.40
2018-03-21T05:29:35.370Z,50.40
2018-03-21T05:32:06.961Z,51.80
2018-03-21T05:34:38.913Z,51.40
2018-03-21T05:37:12.177Z,51.80
2018-03-21T05:39:44.547Z,48.80
2018-03-21T05:42:18.311Z,53.60
2018-03-21T05:44:51.305Z,51.20
2018-03-21T05:47:23.034Z,51.80
2018-03-21T05:49:55.812Z,51.40
2018-03-21T05:52:27.941Z,48.20
2018-03-21T05:55:00.858Z,51.00
2018-03-21T05:57:32.718Z,50.20
2018-03-21T06:00:05.357Z,50.80
2018-03-21T06:02:38.009Z,49.40
2018-03-21T06:05:12.366Z,48.40
2018-03-21T06:07:45.899Z,48.80
2018-03-21T06:10:19.708Z,44.00
2018-03-21T06:12:52.515Z,43.20
2018-03-21T06:15:26.857Z,42.60
2018-03-21T06:17:58.578Z,40.40
2018-03-21T06:20:31.136Z,42.00
2018-03-21T06:23:02.458Z,41.20
2018-03-21T06:25:35.250Z,42.00
2018-03-21T06:28:08.768Z,43.80
2018-03-21T06:30:42.372Z,44.00
2018-03-21T06:33:16.421Z,43.40
2018-03-21T06:35:48.042Z,43.20
2018-03-21T06:38:20.364Z,43.80
2018-03-21T06:40:52.670Z,41.20
2018-03-21T06:43:25.467Z,44.00
2018-03-21T06:45:58.025Z,47.60
2018-03-21T06:48:30.342Z,45.80
2018-03-21T06:51:02.586Z,46.60
2018-03-21T06:53:34.413Z,47.40
2018-03-21T06:56:07.359Z,46.00
2018-03-21T06:58:40.539Z,46.40
2018-03-21T07:01:12.662Z,47.40
2018-03-21T07:03:44.117Z,45.80
2018-03-21T07:06:17.620Z,42.80
2018-03-21T07:08:50.290Z,44.20
2018-03-21T07:11:24.199Z,44.00
2018-03-21T07:14:07.644Z,44.00
2018-03-21T07:16:47.906Z,45.40
2018-03-21T07:19:22.356Z,42.40
2018-03-21T07:21:56.027Z,42.60
2018-03-21T07:24:29.847Z,40.00
2018-03-21T07:27:02.994Z,42.20
2018-03-21T07:29:36.424Z,42.60
2018-03-21T07:32:10.430Z,42.00
2018-03-21T07:34:44.027Z,40.00
2018-03-21T07:37:15.533Z,42.20
2018-03-21T07:39:51.018Z,42.00
2018-03-21T07:42:28.662Z,45.20
2018-03-21T07:45:05.202Z,42.40
2018-03-21T07:50:20.968Z,36.00
2018-03-21T07:52:55.614Z,41.80
2018-03-21T07:55:28.846Z,36.00
2018-03-21T07:58:00.750Z,38.20
2018-03-21T08:00:35.533Z,38.40
2018-03-21T08:03:05.882Z,32.40
2018-03-21T08:05:35.297Z,36.20
2018-03-21T08:08:04.604Z,33.40
2018-03-21T08:10:34.275Z,34.80
2018-03-21T08:13:03.648Z,33.00
2018-03-21T08:15:32.889Z,31.20
2018-03-21T08:18:02.686Z,33.00
2018-03-21T08:20:32.020Z,31.80
2018-03-21T08:23:01.865Z,29.00
2018-03-21T08:25:31.399Z,31.40
2018-03-21T08:28:00.736Z,28.60
2018-03-21T08:30:30.176Z,26.40
2018-03-21T08:33:00.900Z,28.40
2018-03-21T08:35:30.143Z,29.80
2018-03-21T08:38:00.211Z,28.20
2018-03-21T08:40:30.391Z,26.60
2018-03-21T08:43:01.297Z,31.60
2018-03-21T08:45:31.663Z,27.40
2018-03-21T08:48:03.147Z,28.80
2018-03-21T08:50:35.095Z,25.20
2018-03-21T08:53:06.266Z,25.20
2018-03-21T08:55:39.193Z,22.60
2018-03-21T08:58:09.158Z,28.60
2018-03-21T09:00:40.632Z,26.40
2018-03-21T09:03:11.776Z,29.80
2018-03-21T09:05:42.581Z,28.40
2018-03-21T09:08:13.716Z,27.40
2018-03-21T09:10:44.630Z,30.20
2018-03-21T09:13:14.472Z,26.20
2018-03-21T09:15:45.688Z,29.60
2018-03-21T09:18:17.011Z,29.80
2018-03-21T09:20:47.678Z,29.40
2018-03-21T09:23:18.259Z,28.00
2018-03-21T09:25:49.594Z,30.80
2018-03-21T09:28:21.366Z,30.00
2018-03-21T09:30:52.365Z,30.00
2018-03-21T09:33:23.678Z,28.60
2018-03-21T09:35:57.109Z,20.40
2018-03-21T09:38:28.524Z,21.80
2018-03-21T09:41:01.886Z,23.60
2018-03-21T09:43:33.387Z,22.40
2018-03-21T09:46:07.875Z,22.40
2018-03-21T09:48:39.755Z,20.40
2018-03-21T09:51:11.101Z,22.00
2018-03-21T09:53:42.385Z,18.00
2018-03-21T09:56:15.740Z,19.20
2018-03-21T09:58:48.215Z,16.80
2018-03-21T10:01:18.962Z,16.20
2018-03-21T10:03:49.887Z,18.60
2018-03-21T10:06:21.239Z,15.00
2018-03-21T10:08:51.367Z,17.80
2018-03-21T10:11:21.505Z,18.20
2018-03-21T10:13:50.413Z,14.20
2018-03-21T10:16:20.600Z,13.20
2018-03-21T10:18:50.549Z,13.00
2018-03-21T10:21:21.338Z,15.00
2018-03-21T10:23:54.048Z,13.80
2018-03-21T10:26:24.251Z,10.60
2018-03-21T10:28:54.662Z,13.40
2018-03-21T10:31:26.617Z,15.00
2018-03-21T10:33:57.095Z,12.40
2018-03-21T10:36:28.498Z,13.80
2018-03-21T10:39:00.221Z,11.60
2018-03-21T10:41:30.674Z,25.60
2018-03-21T10:44:01.072Z,13.40
2018-03-21T10:46:31.808Z,14.20
2018-03-21T10:49:02.110Z,14.00
2018-03-21T10:51:32.497Z,15.20
2018-03-21T10:54:02.477Z,19.20
2018-03-21T10:56:32.861Z,18.40
2018-03-21T10:59:03.176Z,16.60
2018-03-21T11:01:37.048Z,16.40
2018-03-21T11:04:06.961Z,17.80
2018-03-21T11:06:36.718Z,25.60
2018-03-21T11:09:07.336Z,19.20
2018-03-21T11:11:38.617Z,14.40
2018-03-21T11:14:08.232Z,12.80
2018-03-21T11:16:40.521Z,12.40
2018-03-21T11:19:11.392Z,14.60
2018-03-21T11:21:41.229Z,13.40
2018-03-21T11:24:11.412Z,16.00
2018-03-21T11:26:41.071Z,14.00
2018-03-21T11:29:10.412Z,14.40
2018-03-21T11:31:39.851Z,14.80
2018-03-21T11:34:09.561Z,20.40
2018-03-21T11:36:39.713Z,28.40
2018-03-21T11:39:09.188Z,35.60
2018-03-21T11:41:39.629Z,26.40
2018-03-21T11:44:09.370Z,18.00
2018-03-21T11:46:39.216Z,15.40
2018-03-21T11:49:08.959Z,15.80
2018-03-21T11:51:41.722Z,20.40
2018-03-21T11:54:11.084Z,27.40
2018-03-21T11:56:40.725Z,20.80
2018-03-21T11:59:11.291Z,27.20
2018-03-21T12:01:41.284Z,28.00
2018-03-21T12:04:10.887Z,27.20
2018-03-21T12:06:41.746Z,26.60
2018-03-21T12:09:11.794Z,25.20
2018-03-21T12:11:41.194Z,20.60
2018-03-21T12:14:10.812Z,20.80
2018-03-21T12:16:40.443Z,20.80
2018-03-21T12:19:09.907Z,21.60
2018-03-21T12:21:39.526Z,24.80
2018-03-21T12:24:08.927Z,22.00
2018-03-21T12:26:38.498Z,24.40
2018-03-21T12:29:08.521Z,27.20
2018-03-21T12:31:37.922Z,27.40
2018-03-21T12:34:07.248Z,26.40
2018-03-21T12:36:36.599Z,31.20
2018-03-21T12:39:06.140Z,31.80
2018-03-21T12:41:35.850Z,32.60
2018-03-21T12:44:05.808Z,33.20
2018-03-21T12:46:35.515Z,36.80
2018-03-21T12:49:05.102Z,37.20
2018-03-21T12:51:34.560Z,37.20
2018-03-21T12:54:03.832Z,33.00
2018-03-21T12:56:33.442Z,32.00
2018-03-21T12:59:02.777Z,34.80
2018-03-21T13:01:31.930Z,38.60
2018-03-21T13:04:01.406Z,33.60
2018-03-21T13:06:31.178Z,34.80
2018-03-21T13:09:00.579Z,29.40
2018-03-21T13:11:29.848Z,32.20
2018-03-21T13:13:59.575Z,35.40
2018-03-21T13:16:29.177Z,40.00
2018-03-21T13:18:58.829Z,34.20
2018-03-21T13:21:29.462Z,35.00
2018-03-21T13:23:58.843Z,36.80
2018-03-21T13:26:28.227Z,36.00
2018-03-21T13:28:57.571Z,36.80
2018-03-21T13:31:27.066Z,29.40
2018-03-21T13:33:56.468Z,37.00
2018-03-21T13:36:26.003Z,38.00
2018-03-21T13:38:55.250Z,41.20
2018-03-21T13:41:24.856Z,38.20
2018-03-21T13:43:54.609Z,42.60
2018-03-21T13:46:25.016Z,44.40
2018-03-21T13:48:54.475Z,47.00
2018-03-21T13:51:23.867Z,45.80
2018-03-21T13:53:53.792Z,44.00
2018-03-21T13:56:23.342Z,39.80
2018-03-21T13:58:53.114Z,29.00
2018-03-21T14:01:22.564Z,30.80
2018-03-21T14:03:52.193Z,32.80
2018-03-21T14:06:21.833Z,33.00
2018-03-21T14:08:51.327Z,31.20
2018-03-21T14:11:20.723Z,32.80
2018-03-21T14:13:50.223Z,34.00
2018-03-21T14:16:20.070Z,35.60
2018-03-21T14:18:49.208Z,36.00
2018-03-21T14:21:18.771Z,34.40
2018-03-21T14:23:48.019Z,30.60
2018-03-21T14:26:17.946Z,27.20
2018-03-21T14:28:47.395Z,32.40
2018-03-21T14:31:17.807Z,35.60
2018-03-21T14:33:47.471Z,36.00
2018-03-21T14:36:16.732Z,39.80
2018-03-21T14:38:45.872Z,42.00
2018-03-21T14:41:15.617Z,44.40
2018-03-21T14:43:45.120Z,47.20
2018-03-21T14:46:14.634Z,43.80
2018-03-21T14:48:43.953Z,45.20
2018-03-21T14:51:13.815Z,48.60
2018-03-21T14:53:42.929Z,46.60
2018-03-21T14:56:12.568Z,49.00
2018-03-21T14:58:41.846Z,48.00
2018-03-21T15:01:11.532Z,50.40
2018-03-21T15:03:40.775Z,55.40
2018-03-21T15:06:10.197Z,54.00
2018-03-21T15:08:39.617Z,53.80
2018-03-21T15:11:08.820Z,55.40
2018-03-21T15:13:38.172Z,56.20
2018-03-21T15:16:07.968Z,60.20
2018-03-21T15:18:37.292Z,57.00
2018-03-21T15:21:06.726Z,60.60
2018-03-21T15:23:36.388Z,59.00
2018-03-21T15:26:05.975Z,59.80
2018-03-21T15:28:35.392Z,62.40
2018-03-21T15:31:04.756Z,61.20
2018-03-21T15:33:33.926Z,60.40
2018-03-21T15:36:03.444Z,60.60
2018-03-21T15:38:32.455Z,60.60
2018-03-21T15:41:01.849Z,64.00
2018-03-21T15:43:31.629Z,65.40
2018-03-21T15:46:00.976Z,67.40
2018-03-21T15:48:31.491Z,65.00
2018-03-21T15:53:13.045Z,65.40
2018-03-21T15:55:43.495Z,64.20
2018-03-21T15:58:12.804Z,62.40
2018-03-21T16:00:43.715Z,70.80
2018-03-21T16:03:13.344Z,65.40
2018-03-21T16:05:43.218Z,64.60
2018-03-21T16:08:12.685Z,69.20
2018-03-21T16:10:42.493Z,70.00
2018-03-21T16:13:12.166Z,77.80
2018-03-21T16:15:42.080Z,74.00
2018-03-21T16:18:12.291Z,66.00
2018-03-21T16:20:41.932Z,72.75
2018-03-21T16:23:11.671Z,75.20
2018-03-21T16:25:41.402Z,75.20
2018-03-21T16:28:11.898Z,74.60
2018-03-21T16:30:42.931Z,81.60
2018-03-21T16:33:13.004Z,75.80
2018-03-21T16:35:42.887Z,77.80
2018-03-21T16:38:15.898Z,73.60
2018-03-21T16:40:46.554Z,79.60
2018-03-21T16:43:16.550Z,82.20
2018-03-21T16:45:46.849Z,79.00
2018-03-21T16:48:16.733Z,82.40
2018-03-21T16:56:51.397Z,80.60
2018-03-21T17:05:16.325Z,83.80
2018-03-21T17:07:59.067Z,85.20
2018-03-21T17:22:07.819Z,89.80
2018-03-21T17:24:37.719Z,96.20
2018-03-21T17:27:08.864Z,97.40
2018-03-21T17:29:42.902Z,96.80
2018-03-21T17:32:18.860Z,101.20
2018-03-21T17:34:49.807Z,100.80
2018-03-21T17:37:23.318Z,96.80
2018-03-21T17:39:55.433Z,101.60
2018-03-21T17:42:26.478Z,106.40
2018-03-21T17:44:58.052Z,104.60
2018-03-21T17:47:28.977Z,98.20
2018-03-21T17:49:59.723Z,105.20
2018-03-21T17:52:30.851Z,98.80
2018-03-21T17:55:01.140Z,101.80
2018-03-21T17:57:31.903Z,107.00
2018-03-21T18:00:02.613Z,102.80
2018-03-21T18:02:34.680Z,112.20
2018-03-21T18:05:05.686Z,102.80
2018-03-21T18:07:37.778Z,96.80
2018-03-21T18:10:07.484Z,105.80
2018-03-21T18:12:39.145Z,107.00
2018-03-21T18:15:09.014Z,111.80
2018-03-21T18:17:39.742Z,113.20
2018-03-21T18:20:11.730Z,111.00
2018-03-21T18:22:41.830Z,111.60
2018-03-21T18:25:11.507Z,107.80
2018-03-21T18:27:41.379Z,111.20
2018-03-21T18:30:11.218Z,116.60
2018-03-21T18:32:40.795Z,117.40
2018-03-21T18:35:11.588Z,117.40
2018-03-21T18:37:42.175Z,117.40
2018-03-21T18:40:13.011Z,116.20
2018-03-21T18:42:42.663Z,117.80
2018-03-21T18:45:12.796Z,125.00
2018-03-21T18:50:36.908Z,117.20
2018-03-21T18:53:06.178Z,124.60
2018-03-21T18:55:36.542Z,129.00
2018-03-21T18:58:06.686Z,128.40
2018-03-21T19:00:36.226Z,122.20
2018-03-21T19:03:05.545Z,124.60
2018-03-21T19:05:35.272Z,128.60
2018-03-21T19:08:05.034Z,128.20
2018-03-21T19:10:34.665Z,130.80
2018-03-21T19:13:03.945Z,132.40
2018-03-21T19:15:33.215Z,128.60
2018-03-21T19:18:03.049Z,136.40
2018-03-21T19:20:32.123Z,132.60
2018-03-21T19:23:01.347Z,134.00
2018-03-21T19:25:30.856Z,142.60
2018-03-21T19:28:00.322Z,133.80
2018-03-21T19:30:30.205Z,129.20
2018-03-21T19:32:59.352Z,133.80
2018-03-21T19:35:28.533Z,125.80
2018-03-21T19:37:57.673Z,132.40
2018-03-21T19:40:26.653Z,130.40
2018-03-21T19:42:56.117Z,122.80
2018-03-21T19:45:25.670Z,132.60
2018-03-21T19:47:55.603Z,134.80
2018-03-21T19:50:25.389Z,137.40
2018-03-21T19:52:54.632Z,136.60
2018-03-21T19:55:24.034Z,137.80
2018-03-21T19:57:53.448Z,141.60
2018-03-21T20:00:22.932Z,139.00
2018-03-21T20:02:52.473Z,140.40
2018-03-21T20:05:21.864Z,138.40
2018-03-21T20:07:51.519Z,132.00
2018-03-21T20:10:20.687Z,141.80
2018-03-21T20:12:50.229Z,149.00
2018-03-21T20:15:19.700Z,150.00
2018-03-21T20:17:49.325Z,150.20
2018-03-21T20:20:18.699Z,150.20
2018-03-21T20:22:48.192Z,145.60
2018-03-21T20:25:17.626Z,145.60
2018-03-21T20:27:46.898Z,142.60
2018-03-21T20:30:16.529Z,150.20
2018-03-21T20:32:46.171Z,145.80
2018-03-21T20:35:15.420Z,149.40
2018-03-21T20:37:44.738Z,151.20
2018-03-21T20:40:14.173Z,146.80
2018-03-21T20:42:43.297Z,143.80
2018-03-21T20:45:12.628Z,144.20
2018-03-21T20:47:41.823Z,144.80
2018-03-21T20:50:11.275Z,153.20
2018-03-21T20:52:40.920Z,153.80
2018-03-21T20:55:10.244Z,155.20
2018-03-21T20:57:40.312Z,152.00
2018-03-21T21:00:09.724Z,148.00
2018-03-21T21:02:39.101Z,151.00
2018-03-21T21:05:08.582Z,148.80
2018-03-21T21:07:38.849Z,158.80
2018-03-21T21:10:07.993Z,162.00
2018-03-21T21:12:37.567Z,155.60
2018-03-21T21:15:07.227Z,149.80
2018-03-21T21:17:36.609Z,159.60
2018-03-21T21:20:06.315Z,157.80
2018-03-21T21:22:35.550Z,161.00
2018-03-21T21:25:04.975Z,156.00
2018-03-21T21:27:34.450Z,160.20
2018-03-21T21:30:04.097Z,165.80
2018-03-21T21:32:33.307Z,165.60
2018-03-21T21:35:02.847Z,162.60
2018-03-21T21:37:32.324Z,161.80
2018-03-21T21:40:01.838Z,165.60
2018-03-21T21:42:31.163Z,163.20
2018-03-21T21:45:00.547Z,167.00
2018-03-21T21:47:45.239Z,166.60
2018-03-21T21:50:14.902Z,171.60
2018-03-21T21:52:44.762Z,165.60
2018-03-21T21:55:14.170Z,167.00
2018-03-21T21:57:43.961Z,167.20
2018-03-21T22:00:13.943Z,174.60
2018-03-21T22:02:43.256Z,172.40
2018-03-21T22:05:12.572Z,173.40
2018-03-21T22:07:42.281Z,170.40
2018-03-21T22:10:11.738Z,178.60
2018-03-21T22:12:41.227Z,179.00
2018-03-21T22:15:10.634Z,169.20
2018-03-21T22:17:40.329Z,176.25
2018-03-21T22:20:09.848Z,182.25
2018-03-21T22:22:39.405Z,180.75
2018-03-21T22:28:02.757Z,175.20
2018-03-21T22:30:32.104Z,178.80
2018-03-21T22:33:01.455Z,186.50
2018-03-21T22:38:24.655Z,182.00
2018-03-21T22:40:54.226Z,186.50
2018-03-21T22:43:23.329Z,186.25
2018-03-21T22:45:52.489Z,191.50
2018-03-21T22:48:22.011Z,187.00
2018-03-21T22:50:51.276Z,178.75
2018-03-21T22:53:20.752Z,177.75
2018-03-21T22:55:50.118Z,168.00
2018-03-21T22:58:20.096Z,174.80
2018-03-21T23:00:49.343Z,183.75
2018-03-21T23:03:18.820Z,171.00
2018-03-21T23:05:48.172Z,173.60
2018-03-21T23:08:17.450Z,167.60
2018-03-21T23:10:46.834Z,184.00
2018-03-21T23:13:16.418Z,178.50
2018-03-21T23:15:45.811Z,184.20
2018-03-21T23:18:15.092Z,190.00
2018-03-21T23:20:44.487Z,175.80
2018-03-21T23:23:13.857Z,180.80
2018-03-21T23:25:43.189Z,187.00
2018-03-21T23:28:12.262Z,188.00
2018-03-21T23:30:41.499Z,189.00
2018-03-21T23:33:10.719Z,181.50
2018-03-21T23:35:40.206Z,178.00
2018-03-21T23:38:09.505Z,185.75
2018-03-21T23:40:38.996Z,188.00
2018-03-21T23:43:08.180Z,180.50
2018-03-21T23:45:37.502Z,183.25
2018-03-21T23:48:06.727Z,173.75
2018-03-21T23:50:36.108Z,180.80
2018-03-21T23:53:05.259Z,178.00
2018-03-21T23:55:34.590Z,178.20
